sensor_id;sensor_type;location;lat;lon;timestamp;P1;durP1;ratioP1;P2;durP2;ratioP2
27269;SDS011;14769;56.934;24.176;2022-09-14T00:00:40;3.00;;;2.80;;
27269;SDS011;14769;56.934;24.176;2022-09-14T00:01:42;7.70;;;3.17;;
27269;SDS011;14769;56.934;24.176;2022-09-14T00:02:44;5.50;;;3.17;;
27269;SDS011;14769;56.934;24.176;2022-09-14T00:03:50;4.40;;;3.40;;
27269;SDS011;14769;56.934;24.176;2022-09-14T00:04:53;5.07;;;2.83;;
27269;SDS011;14769;56.934;24.176;2022-09-14T00:05:54;3.30;;;3.00;;
27269;SDS011;14769;56.934;24.176;2022-09-14T00:06:56;3.25;;;3.00;;
27269;SDS011;14769;56.934;24.176;2022-09-14T00:07:58;3.10;;;2.80;;
27269;SDS011;14769;56.934;24.176;2022-09-14T00:09:00;3.05;;;2.70;;
27269;SDS011;14769;56.934;24.176;2022-09-14T00:10:03;3.03;;;2.72;;
27269;SDS011;14769;56.934;24.176;2022-09-14T00:11:06;3.00;;;2.78;;
27269;SDS011;14769;56.934;24.176;2022-09-14T00:12:09;3.20;;;2.90;;
27269;SDS011;14769;56.934;24.176;2022-09-14T00:13:12;2.40;;;2.30;;
27269;SDS011;14769;56.934;24.176;2022-09-14T00:14:14;4.70;;;2.72;;
27269;SDS011;14769;56.934;24.176;2022-09-14T00:15:17;3.13;;;2.92;;
27269;SDS011;14769;56.934;24.176;2022-09-14T00:16:22;2.83;;;2.63;;
27269;SDS011;14769;56.934;24.176;2022-09-14T00:17:26;6.53;;;3.03;;
27269;SDS011;14769;56.934;24.176;2022-09-14T00:18:28;5.25;;;2.92;;
27269;SDS011;14769;56.934;24.176;2022-09-14T00:19:30;4.15;;;2.97;;
27269;SDS011;14769;56.934;24.176;2022-09-14T00:20:32;3.80;;;2.63;;
27269;SDS011;14769;56.934;24.176;2022-09-14T00:21:35;3.42;;;3.13;;
27269;SDS011;14769;56.934;24.176;2022-09-14T00:22:37;3.28;;;2.80;;
27269;SDS011;14769;56.934;24.176;2022-09-14T00:23:40;4.07;;;2.72;;
27269;SDS011;14769;56.934;24.176;2022-09-14T00:24:42;2.42;;;2.33;;
27269;SDS011;14769;56.934;24.176;2022-09-14T00:25:44;3.38;;;3.10;;
27269;SDS011;14769;56.934;24.176;2022-09-14T00:26:45;2.95;;;2.75;;
27269;SDS011;14769;56.934;24.176;2022-09-14T00:27:47;4.10;;;3.22;;
27269;SDS011;14769;56.934;24.176;2022-09-14T00:28:52;4.85;;;3.35;;
27269;SDS011;14769;56.934;24.176;2022-09-14T00:29:57;3.65;;;2.97;;
27269;SDS011;14769;56.934;24.176;2022-09-14T00:30:59;6.10;;;3.10;;
27269;SDS011;14769;56.934;24.176;2022-09-14T00:32:00;3.38;;;3.00;;
27269;SDS011;14769;56.934;24.176;2022-09-14T00:33:03;3.00;;;2.72;;
27269;SDS011;14769;56.934;24.176;2022-09-14T00:34:06;3.38;;;2.80;;
27269;SDS011;14769;56.934;24.176;2022-09-14T00:35:09;3.30;;;3.00;;
27269;SDS011;14769;56.934;24.176;2022-09-14T00:36:12;4.13;;;2.80;;
27269;SDS011;14769;56.934;24.176;2022-09-14T00:37:18;3.42;;;3.13;;
27269;SDS011;14769;56.934;24.176;2022-09-14T00:38:20;3.55;;;3.00;;
27269;SDS011;14769;56.934;24.176;2022-09-14T00:39:22;3.33;;;2.90;;
27269;SDS011;14769;56.934;24.176;2022-09-14T00:40:24;2.80;;;2.60;;
27269;SDS011;14769;56.934;24.176;2022-09-14T00:41:28;3.40;;;3.10;;
27269;SDS011;14769;56.934;24.176;2022-09-14T00:42:35;6.22;;;3.40;;
27269;SDS011;14769;56.934;24.176;2022-09-14T00:43:54;3.15;;;2.95;;
27269;SDS011;14769;56.934;24.176;2022-09-14T00:46:22;3.38;;;2.88;;
27269;SDS011;14769;56.934;24.176;2022-09-14T00:47:24;2.80;;;2.60;;
27269;SDS011;14769;56.934;24.176;2022-09-14T00:48:27;3.10;;;2.90;;
27269;SDS011;14769;56.934;24.176;2022-09-14T00:49:31;3.38;;;3.00;;
27269;SDS011;14769;56.934;24.176;2022-09-14T00:50:35;2.95;;;2.75;;
27269;SDS011;14769;56.934;24.176;2022-09-14T00:51:38;3.75;;;2.88;;
27269;SDS011;14769;56.934;24.176;2022-09-14T00:52:46;3.30;;;3.00;;
27269;SDS011;14769;56.934;24.176;2022-09-14T00:53:50;3.33;;;2.92;;
27269;SDS011;14769;56.934;24.176;2022-09-14T00:54:56;2.85;;;2.65;;
27269;SDS011;14769;56.934;24.176;2022-09-14T00:56:00;3.70;;;3.40;;
27269;SDS011;14769;56.934;24.176;2022-09-14T00:57:02;3.40;;;3.10;;
27269;SDS011;14769;56.934;24.176;2022-09-14T00:58:04;3.28;;;2.97;;
27269;SDS011;14769;56.934;24.176;2022-09-14T00:59:09;4.20;;;3.05;;
27269;SDS011;14769;56.934;24.176;2022-09-14T01:00:18;3.65;;;3.20;;
27269;SDS011;14769;56.934;24.176;2022-09-14T01:01:22;3.22;;;2.80;;
27269;SDS011;14769;56.934;24.176;2022-09-14T01:02:26;3.65;;;3.03;;
27269;SDS011;14769;56.934;24.176;2022-09-14T01:03:28;3.42;;;3.13;;
27269;SDS011;14769;56.934;24.176;2022-09-14T01:04:30;4.28;;;3.22;;
27269;SDS011;14769;56.934;24.176;2022-09-14T01:05:39;3.72;;;3.38;;
27269;SDS011;14769;56.934;24.176;2022-09-14T01:08:19;5.78;;;3.05;;
27269;SDS011;14769;56.934;24.176;2022-09-14T01:09:55;3.40;;;3.00;;
27269;SDS011;14769;56.934;24.176;2022-09-14T01:14:07;3.40;;;3.10;;
27269;SDS011;14769;56.934;24.176;2022-09-14T01:15:20;3.53;;;3.22;;
27269;SDS011;14769;56.934;24.176;2022-09-14T01:16:54;3.58;;;3.17;;
27269;SDS011;14769;56.934;24.176;2022-09-14T01:18:17;3.92;;;3.63;;
27269;SDS011;14769;56.934;24.176;2022-09-14T01:20:39;3.63;;;3.33;;
27269;SDS011;14769;56.934;24.176;2022-09-14T01:21:55;5.43;;;3.50;;
27269;SDS011;14769;56.934;24.176;2022-09-14T01:24:25;4.63;;;3.60;;
27269;SDS011;14769;56.934;24.176;2022-09-14T01:30:08;3.80;;;3.45;;
27269;SDS011;14769;56.934;24.176;2022-09-14T01:33:54;6.13;;;3.33;;
27269;SDS011;14769;56.934;24.176;2022-09-14T01:36:30;3.80;;;3.50;;
27269;SDS011;14769;56.934;24.176;2022-09-14T01:37:39;3.83;;;3.53;;
27269;SDS011;14769;56.934;24.176;2022-09-14T01:38:50;3.85;;;3.55;;
27269;SDS011;14769;56.934;24.176;2022-09-14T01:40:06;6.95;;;3.90;;
27269;SDS011;14769;56.934;24.176;2022-09-14T01:41:15;4.63;;;3.90;;
27269;SDS011;14769;56.934;24.176;2022-09-14T01:42:21;4.13;;;3.72;;
27269;SDS011;14769;56.934;24.176;2022-09-14T01:44:41;5.13;;;3.90;;
27269;SDS011;14769;56.934;24.176;2022-09-14T01:45:49;4.78;;;3.70;;
27269;SDS011;14769;56.934;24.176;2022-09-14T01:47:02;3.97;;;3.58;;
27269;SDS011;14769;56.934;24.176;2022-09-14T01:48:18;4.78;;;3.83;;
27269;SDS011;14769;56.934;24.176;2022-09-14T01:49:28;4.20;;;3.78;;
27269;SDS011;14769;56.934;24.176;2022-09-14T01:50:39;5.95;;;3.97;;
27269;SDS011;14769;56.934;24.176;2022-09-14T01:51:48;4.82;;;3.90;;
27269;SDS011;14769;56.934;24.176;2022-09-14T01:52:55;4.75;;;3.92;;
27269;SDS011;14769;56.934;24.176;2022-09-14T01:54:12;4.47;;;3.50;;
27269;SDS011;14769;56.934;24.176;2022-09-14T01:55:22;4.55;;;4.10;;
27269;SDS011;14769;56.934;24.176;2022-09-14T01:56:32;6.63;;;4.20;;
27269;SDS011;14769;56.934;24.176;2022-09-14T01:57:41;4.97;;;4.28;;
27269;SDS011;14769;56.934;24.176;2022-09-14T01:58:47;6.03;;;4.55;;
27269;SDS011;14769;56.934;24.176;2022-09-14T02:00:12;5.43;;;4.05;;
27269;SDS011;14769;56.934;24.176;2022-09-14T02:01:23;4.15;;;3.75;;
27269;SDS011;14769;56.934;24.176;2022-09-14T02:03:42;4.70;;;4.30;;
27269;SDS011;14769;56.934;24.176;2022-09-14T02:06:04;6.32;;;4.22;;
27269;SDS011;14769;56.934;24.176;2022-09-14T02:07:11;5.85;;;4.57;;
27269;SDS011;14769;56.934;24.176;2022-09-14T02:08:13;4.82;;;4.43;;
27269;SDS011;14769;56.934;24.176;2022-09-14T02:09:18;4.68;;;4.18;;
27269;SDS011;14769;56.934;24.176;2022-09-14T02:10:22;5.45;;;4.63;;
27269;SDS011;14769;56.934;24.176;2022-09-14T02:11:25;5.00;;;4.15;;
27269;SDS011;14769;56.934;24.176;2022-09-14T02:12:27;6.18;;;4.80;;
27269;SDS011;14769;56.934;24.176;2022-09-14T02:13:29;4.60;;;4.15;;
27269;SDS011;14769;56.934;24.176;2022-09-14T02:14:31;4.30;;;3.90;;
27269;SDS011;14769;56.934;24.176;2022-09-14T02:15:33;4.85;;;4.22;;
27269;SDS011;14769;56.934;24.176;2022-09-14T02:16:37;4.97;;;4.57;;
27269;SDS011;14769;56.934;24.176;2022-09-14T02:17:43;6.18;;;4.43;;
27269;SDS011;14769;56.934;24.176;2022-09-14T02:18:46;6.78;;;4.70;;
27269;SDS011;14769;56.934;24.176;2022-09-14T02:19:54;7.90;;;4.68;;
27269;SDS011;14769;56.934;24.176;2022-09-14T02:21:03;4.88;;;4.47;;
27269;SDS011;14769;56.934;24.176;2022-09-14T02:22:10;5.97;;;4.50;;
27269;SDS011;14769;56.934;24.176;2022-09-14T02:23:12;4.68;;;4.18;;
27269;SDS011;14769;56.934;24.176;2022-09-14T02:24:14;4.93;;;4.53;;
27269;SDS011;14769;56.934;24.176;2022-09-14T02:25:16;6.30;;;4.82;;
27269;SDS011;14769;56.934;24.176;2022-09-14T02:26:19;5.97;;;4.57;;
27269;SDS011;14769;56.934;24.176;2022-09-14T02:27:23;5.88;;;4.85;;
27269;SDS011;14769;56.934;24.176;2022-09-14T02:28:25;4.93;;;4.53;;
27269;SDS011;14769;56.934;24.176;2022-09-14T02:29:26;5.22;;;4.72;;
27269;SDS011;14769;56.934;24.176;2022-09-14T02:30:29;7.30;;;5.35;;
27269;SDS011;14769;56.934;24.176;2022-09-14T02:31:43;6.05;;;4.90;;
27269;SDS011;14769;56.934;24.176;2022-09-14T02:32:56;4.57;;;4.05;;
27269;SDS011;14769;56.934;24.176;2022-09-14T02:34:33;5.22;;;4.45;;
27269;SDS011;14769;56.934;24.176;2022-09-14T02:35:38;6.47;;;4.43;;
27269;SDS011;14769;56.934;24.176;2022-09-14T02:38:10;10.20;;;4.75;;
27269;SDS011;14769;56.934;24.176;2022-09-14T02:39:23;6.30;;;4.55;;
27269;SDS011;14769;56.934;24.176;2022-09-14T02:41:00;5.53;;;4.55;;
27269;SDS011;14769;56.934;24.176;2022-09-14T02:44:02;5.97;;;4.88;;
27269;SDS011;14769;56.934;24.176;2022-09-14T02:46:14;5.75;;;5.03;;
27269;SDS011;14769;56.934;24.176;2022-09-14T02:47:37;6.10;;;5.13;;
27269;SDS011;14769;56.934;24.176;2022-09-14T02:50:34;5.90;;;4.93;;
27269;SDS011;14769;56.934;24.176;2022-09-14T02:51:54;5.30;;;4.88;;
27269;SDS011;14769;56.934;24.176;2022-09-14T02:53:15;8.95;;;5.13;;
27269;SDS011;14769;56.934;24.176;2022-09-14T02:54:40;8.02;;;5.03;;
27269;SDS011;14769;56.934;24.176;2022-09-14T02:56:04;6.03;;;4.80;;
27269;SDS011;14769;56.934;24.176;2022-09-14T02:57:08;6.07;;;4.78;;
27269;SDS011;14769;56.934;24.176;2022-09-14T02:58:11;5.05;;;4.57;;
27269;SDS011;14769;56.934;24.176;2022-09-14T02:59:14;4.93;;;4.32;;
27269;SDS011;14769;56.934;24.176;2022-09-14T03:00:16;5.03;;;4.63;;
27269;SDS011;14769;56.934;24.176;2022-09-14T03:01:18;6.45;;;4.57;;
27269;SDS011;14769;56.934;24.176;2022-09-14T03:02:24;5.18;;;4.55;;
27269;SDS011;14769;56.934;24.176;2022-09-14T03:03:26;5.03;;;4.60;;
27269;SDS011;14769;56.934;24.176;2022-09-14T03:04:33;5.82;;;4.65;;
27269;SDS011;14769;56.934;24.176;2022-09-14T03:05:35;5.22;;;4.80;;
27269;SDS011;14769;56.934;24.176;2022-09-14T03:06:37;5.50;;;4.90;;
27269;SDS011;14769;56.934;24.176;2022-09-14T03:07:39;5.43;;;4.50;;
27269;SDS011;14769;56.934;24.176;2022-09-14T03:08:40;4.93;;;4.47;;
27269;SDS011;14769;56.934;24.176;2022-09-14T03:09:44;7.57;;;5.00;;
27269;SDS011;14769;56.934;24.176;2022-09-14T03:10:45;5.00;;;4.60;;
27269;SDS011;14769;56.934;24.176;2022-09-14T03:11:47;5.30;;;4.80;;
27269;SDS011;14769;56.934;24.176;2022-09-14T03:12:49;5.45;;;4.90;;
27269;SDS011;14769;56.934;24.176;2022-09-14T03:13:51;5.47;;;4.90;;
27269;SDS011;14769;56.934;24.176;2022-09-14T03:14:52;5.97;;;5.07;;
27269;SDS011;14769;56.934;24.176;2022-09-14T03:15:54;5.25;;;4.72;;
27269;SDS011;14769;56.934;24.176;2022-09-14T03:16:56;6.05;;;4.85;;
27269;SDS011;14769;56.934;24.176;2022-09-14T03:17:58;6.28;;;5.28;;
27269;SDS011;14769;56.934;24.176;2022-09-14T03:19:00;6.45;;;5.10;;
27269;SDS011;14769;56.934;24.176;2022-09-14T03:20:01;5.57;;;5.00;;
27269;SDS011;14769;56.934;24.176;2022-09-14T03:21:14;5.65;;;4.55;;
27269;SDS011;14769;56.934;24.176;2022-09-14T03:22:17;5.75;;;5.25;;
27269;SDS011;14769;56.934;24.176;2022-09-14T03:23:19;6.03;;;4.95;;
27269;SDS011;14769;56.934;24.176;2022-09-14T03:24:20;6.55;;;5.60;;
27269;SDS011;14769;56.934;24.176;2022-09-14T03:25:22;6.13;;;5.30;;
27269;SDS011;14769;56.934;24.176;2022-09-14T03:26:24;6.43;;;5.40;;
27269;SDS011;14769;56.934;24.176;2022-09-14T03:27:29;5.88;;;5.28;;
27269;SDS011;14769;56.934;24.176;2022-09-14T03:28:30;7.43;;;5.70;;
27269;SDS011;14769;56.934;24.176;2022-09-14T03:29:32;5.85;;;5.35;;
27269;SDS011;14769;56.934;24.176;2022-09-14T03:30:34;6.68;;;5.53;;
27269;SDS011;14769;56.934;24.176;2022-09-14T03:31:36;7.32;;;5.43;;
27269;SDS011;14769;56.934;24.176;2022-09-14T03:32:38;7.25;;;5.53;;
27269;SDS011;14769;56.934;24.176;2022-09-14T03:33:40;6.68;;;5.90;;
27269;SDS011;14769;56.934;24.176;2022-09-14T03:34:41;8.45;;;6.07;;
27269;SDS011;14769;56.934;24.176;2022-09-14T03:35:43;6.90;;;5.82;;
27269;SDS011;14769;56.934;24.176;2022-09-14T03:36:45;7.07;;;6.38;;
27269;SDS011;14769;56.934;24.176;2022-09-14T03:37:46;7.95;;;6.05;;
27269;SDS011;14769;56.934;24.176;2022-09-14T03:38:49;6.90;;;5.72;;
27269;SDS011;14769;56.934;24.176;2022-09-14T03:39:52;7.20;;;5.97;;
27269;SDS011;14769;56.934;24.176;2022-09-14T03:40:55;8.95;;;6.47;;
27269;SDS011;14769;56.934;24.176;2022-09-14T03:41:58;9.60;;;6.80;;
27269;SDS011;14769;56.934;24.176;2022-09-14T03:42:59;6.90;;;6.30;;
27269;SDS011;14769;56.934;24.176;2022-09-14T03:44:01;9.13;;;6.70;;
27269;SDS011;14769;56.934;24.176;2022-09-14T03:45:03;8.73;;;7.43;;
27269;SDS011;14769;56.934;24.176;2022-09-14T03:46:09;9.90;;;7.10;;
27269;SDS011;14769;56.934;24.176;2022-09-14T03:47:13;9.35;;;7.40;;
27269;SDS011;14769;56.934;24.176;2022-09-14T03:48:15;8.75;;;7.45;;
27269;SDS011;14769;56.934;24.176;2022-09-14T03:49:17;7.95;;;6.97;;
27269;SDS011;14769;56.934;24.176;2022-09-14T03:50:18;7.38;;;6.68;;
27269;SDS011;14769;56.934;24.176;2022-09-14T03:51:20;8.85;;;7.10;;
27269;SDS011;14769;56.934;24.176;2022-09-14T03:52:23;9.20;;;7.85;;
27269;SDS011;14769;56.934;24.176;2022-09-14T03:53:24;8.23;;;7.28;;
27269;SDS011;14769;56.934;24.176;2022-09-14T03:54:26;9.25;;;7.38;;
27269;SDS011;14769;56.934;24.176;2022-09-14T03:55:28;8.50;;;7.35;;
27269;SDS011;14769;56.934;24.176;2022-09-14T03:56:30;10.07;;;7.57;;
27269;SDS011;14769;56.934;24.176;2022-09-14T03:57:32;11.13;;;8.32;;
27269;SDS011;14769;56.934;24.176;2022-09-14T03:58:33;8.88;;;7.93;;
27269;SDS011;14769;56.934;24.176;2022-09-14T03:59:35;11.95;;;8.38;;
27269;SDS011;14769;56.934;24.176;2022-09-14T04:00:43;12.85;;;8.43;;
27269;SDS011;14769;56.934;24.176;2022-09-14T04:01:45;11.20;;;8.60;;
27269;SDS011;14769;56.934;24.176;2022-09-14T04:02:47;13.50;;;8.63;;
27269;SDS011;14769;56.934;24.176;2022-09-14T04:03:49;11.60;;;8.75;;
27269;SDS011;14769;56.934;24.176;2022-09-14T04:04:51;14.25;;;8.80;;
27269;SDS011;14769;56.934;24.176;2022-09-14T04:05:54;10.32;;;8.43;;
27269;SDS011;14769;56.934;24.176;2022-09-14T04:06:56;11.65;;;9.13;;
27269;SDS011;14769;56.934;24.176;2022-09-14T04:07:59;10.00;;;8.45;;
27269;SDS011;14769;56.934;24.176;2022-09-14T04:09:01;13.35;;;9.25;;
27269;SDS011;14769;56.934;24.176;2022-09-14T04:10:03;14.93;;;9.38;;
27269;SDS011;14769;56.934;24.176;2022-09-14T04:11:09;13.15;;;9.18;;
27269;SDS011;14769;56.934;24.176;2022-09-14T04:12:14;14.88;;;9.05;;
27269;SDS011;14769;56.934;24.176;2022-09-14T04:13:16;13.15;;;9.35;;
27269;SDS011;14769;56.934;24.176;2022-09-14T04:14:18;14.38;;;10.13;;
27269;SDS011;14769;56.934;24.176;2022-09-14T04:15:20;12.27;;;9.52;;
27269;SDS011;14769;56.934;24.176;2022-09-14T04:16:21;10.25;;;8.95;;
27269;SDS011;14769;56.934;24.176;2022-09-14T04:17:23;11.95;;;9.00;;
27269;SDS011;14769;56.934;24.176;2022-09-14T04:18:25;10.32;;;9.02;;
27269;SDS011;14769;56.934;24.176;2022-09-14T04:19:27;10.85;;;9.27;;
27269;SDS011;14769;56.934;24.176;2022-09-14T04:20:29;13.45;;;9.50;;
27269;SDS011;14769;56.934;24.176;2022-09-14T04:21:31;9.85;;;8.85;;
27269;SDS011;14769;56.934;24.176;2022-09-14T04:22:33;12.13;;;8.98;;
27269;SDS011;14769;56.934;24.176;2022-09-14T04:23:35;17.17;;;9.90;;
27269;SDS011;14769;56.934;24.176;2022-09-14T04:24:57;12.93;;;9.20;;
27269;SDS011;14769;56.934;24.176;2022-09-14T04:25:58;13.13;;;9.20;;
27269;SDS011;14769;56.934;24.176;2022-09-14T04:27:00;13.60;;;9.82;;
27269;SDS011;14769;56.934;24.176;2022-09-14T04:28:02;13.55;;;10.00;;
27269;SDS011;14769;56.934;24.176;2022-09-14T04:29:20;13.38;;;9.88;;
27269;SDS011;14769;56.934;24.176;2022-09-14T04:30:22;16.20;;;10.43;;
27269;SDS011;14769;56.934;24.176;2022-09-14T04:31:24;15.68;;;9.30;;
27269;SDS011;14769;56.934;24.176;2022-09-14T04:32:26;11.52;;;9.60;;
27269;SDS011;14769;56.934;24.176;2022-09-14T04:33:34;12.70;;;9.77;;
27269;SDS011;14769;56.934;24.176;2022-09-14T04:34:36;17.67;;;9.50;;
27269;SDS011;14769;56.934;24.176;2022-09-14T04:35:38;13.52;;;10.43;;
27269;SDS011;14769;56.934;24.176;2022-09-14T04:36:40;15.93;;;9.98;;
27269;SDS011;14769;56.934;24.176;2022-09-14T04:37:42;14.18;;;10.40;;
27269;SDS011;14769;56.934;24.176;2022-09-14T04:38:44;11.98;;;9.63;;
27269;SDS011;14769;56.934;24.176;2022-09-14T04:39:47;14.80;;;9.75;;
27269;SDS011;14769;56.934;24.176;2022-09-14T04:40:48;13.80;;;10.50;;
27269;SDS011;14769;56.934;24.176;2022-09-14T04:41:50;14.35;;;9.43;;
27269;SDS011;14769;56.934;24.176;2022-09-14T04:42:52;14.32;;;10.65;;
27269;SDS011;14769;56.934;24.176;2022-09-14T04:43:55;18.27;;;10.27;;
27269;SDS011;14769;56.934;24.176;2022-09-14T04:44:57;15.20;;;9.77;;
27269;SDS011;14769;56.934;24.176;2022-09-14T04:46:32;13.55;;;10.50;;
27269;SDS011;14769;56.934;24.176;2022-09-14T04:47:28;15.05;;;10.48;;
27269;SDS011;14769;56.934;24.176;2022-09-14T04:48:30;15.05;;;9.57;;
27269;SDS011;14769;56.934;24.176;2022-09-14T04:49:35;16.77;;;10.88;;
27269;SDS011;14769;56.934;24.176;2022-09-14T04:50:37;12.55;;;10.50;;
27269;SDS011;14769;56.934;24.176;2022-09-14T04:51:38;13.63;;;10.20;;
27269;SDS011;14769;56.934;24.176;2022-09-14T04:52:40;14.85;;;10.90;;
27269;SDS011;14769;56.934;24.176;2022-09-14T04:53:42;14.23;;;10.00;;
27269;SDS011;14769;56.934;24.176;2022-09-14T04:54:45;14.52;;;11.15;;
27269;SDS011;14769;56.934;24.176;2022-09-14T04:55:47;14.70;;;10.75;;
27269;SDS011;14769;56.934;24.176;2022-09-14T04:56:49;13.77;;;10.57;;
27269;SDS011;14769;56.934;24.176;2022-09-14T04:57:50;12.32;;;10.65;;
27269;SDS011;14769;56.934;24.176;2022-09-14T04:58:53;14.90;;;11.65;;
27269;SDS011;14769;56.934;24.176;2022-09-14T04:59:58;14.88;;;11.48;;
27269;SDS011;14769;56.934;24.176;2022-09-14T05:01:01;17.70;;;11.55;;
27269;SDS011;14769;56.934;24.176;2022-09-14T05:02:08;17.10;;;12.23;;
27269;SDS011;14769;56.934;24.176;2022-09-14T05:03:10;16.15;;;12.20;;
27269;SDS011;14769;56.934;24.176;2022-09-14T05:04:12;16.25;;;11.57;;
27269;SDS011;14769;56.934;24.176;2022-09-14T05:05:14;20.80;;;11.93;;
27269;SDS011;14769;56.934;24.176;2022-09-14T05:06:19;18.20;;;11.60;;
27269;SDS011;14769;56.934;24.176;2022-09-14T05:07:23;15.85;;;11.57;;
27269;SDS011;14769;56.934;24.176;2022-09-14T05:08:24;14.48;;;11.75;;
27269;SDS011;14769;56.934;24.176;2022-09-14T05:09:26;16.70;;;11.73;;
27269;SDS011;14769;56.934;24.176;2022-09-14T05:10:28;16.48;;;11.82;;
27269;SDS011;14769;56.934;24.176;2022-09-14T05:11:31;17.65;;;12.15;;
27269;SDS011;14769;56.934;24.176;2022-09-14T05:12:34;15.32;;;11.55;;
27269;SDS011;14769;56.934;24.176;2022-09-14T05:13:36;17.65;;;12.05;;
27269;SDS011;14769;56.934;24.176;2022-09-14T05:14:38;17.60;;;12.25;;
27269;SDS011;14769;56.934;24.176;2022-09-14T05:15:40;18.20;;;12.55;;
27269;SDS011;14769;56.934;24.176;2022-09-14T05:16:50;16.35;;;12.27;;
27269;SDS011;14769;56.934;24.176;2022-09-14T05:17:53;19.20;;;11.85;;
27269;SDS011;14769;56.934;24.176;2022-09-14T05:18:59;17.60;;;12.32;;
27269;SDS011;14769;56.934;24.176;2022-09-14T05:20:02;15.75;;;11.82;;
27269;SDS011;14769;56.934;24.176;2022-09-14T05:21:07;21.10;;;12.00;;
27269;SDS011;14769;56.934;24.176;2022-09-14T05:22:10;15.75;;;12.65;;
27269;SDS011;14769;56.934;24.176;2022-09-14T05:23:12;16.02;;;12.07;;
27269;SDS011;14769;56.934;24.176;2022-09-14T05:24:15;16.75;;;11.90;;
27269;SDS011;14769;56.934;24.176;2022-09-14T05:25:18;15.50;;;11.38;;
27269;SDS011;14769;56.934;24.176;2022-09-14T05:26:21;14.68;;;11.60;;
27269;SDS011;14769;56.934;24.176;2022-09-14T05:27:23;16.00;;;11.82;;
27269;SDS011;14769;56.934;24.176;2022-09-14T05:28:25;15.85;;;12.10;;
27269;SDS011;14769;56.934;24.176;2022-09-14T05:29:27;19.63;;;12.05;;
27269;SDS011;14769;56.934;24.176;2022-09-14T05:30:30;16.85;;;11.90;;
27269;SDS011;14769;56.934;24.176;2022-09-14T05:31:31;19.63;;;12.10;;
27269;SDS011;14769;56.934;24.176;2022-09-14T05:32:33;15.70;;;11.88;;
27269;SDS011;14769;56.934;24.176;2022-09-14T05:33:35;15.20;;;12.15;;
27269;SDS011;14769;56.934;24.176;2022-09-14T05:34:38;17.90;;;12.65;;
27269;SDS011;14769;56.934;24.176;2022-09-14T05:35:40;16.88;;;11.88;;
27269;SDS011;14769;56.934;24.176;2022-09-14T05:36:41;16.42;;;12.65;;
27269;SDS011;14769;56.934;24.176;2022-09-14T05:37:43;15.00;;;11.68;;
27269;SDS011;14769;56.934;24.176;2022-09-14T05:38:45;19.63;;;13.05;;
27269;SDS011;14769;56.934;24.176;2022-09-14T05:39:48;21.35;;;13.43;;
27269;SDS011;14769;56.934;24.176;2022-09-14T05:40:52;19.25;;;13.63;;
27269;SDS011;14769;56.934;24.176;2022-09-14T05:41:55;17.52;;;13.05;;
27269;SDS011;14769;56.934;24.176;2022-09-14T05:42:56;19.27;;;14.00;;
27269;SDS011;14769;56.934;24.176;2022-09-14T05:43:58;20.05;;;14.25;;
27269;SDS011;14769;56.934;24.176;2022-09-14T05:45:00;19.25;;;14.13;;
27269;SDS011;14769;56.934;24.176;2022-09-14T05:46:02;20.30;;;13.85;;
27269;SDS011;14769;56.934;24.176;2022-09-14T05:47:06;19.80;;;13.55;;
27269;SDS011;14769;56.934;24.176;2022-09-14T05:48:08;19.58;;;12.85;;
27269;SDS011;14769;56.934;24.176;2022-09-14T05:49:09;17.67;;;13.10;;
27269;SDS011;14769;56.934;24.176;2022-09-14T05:50:11;20.65;;;13.93;;
27269;SDS011;14769;56.934;24.176;2022-09-14T05:51:16;18.60;;;13.80;;
27269;SDS011;14769;56.934;24.176;2022-09-14T05:52:20;20.65;;;14.38;;
27269;SDS011;14769;56.934;24.176;2022-09-14T05:53:22;23.02;;;14.63;;
27269;SDS011;14769;56.934;24.176;2022-09-14T05:54:23;17.77;;;13.50;;
27269;SDS011;14769;56.934;24.176;2022-09-14T05:55:25;20.52;;;13.63;;
27269;SDS011;14769;56.934;24.176;2022-09-14T05:56:28;17.73;;;14.60;;
27269;SDS011;14769;56.934;24.176;2022-09-14T05:57:32;21.52;;;14.70;;
27269;SDS011;14769;56.934;24.176;2022-09-14T05:58:34;22.05;;;13.98;;
27269;SDS011;14769;56.934;24.176;2022-09-14T05:59:37;19.00;;;14.48;;
27269;SDS011;14769;56.934;24.176;2022-09-14T06:00:39;20.02;;;14.40;;
27269;SDS011;14769;56.934;24.176;2022-09-14T06:01:41;21.45;;;13.95;;
27269;SDS011;14769;56.934;24.176;2022-09-14T06:02:49;22.73;;;14.48;;
27269;SDS011;14769;56.934;24.176;2022-09-14T06:03:53;19.25;;;14.48;;
27269;SDS011;14769;56.934;24.176;2022-09-14T06:04:56;18.55;;;13.20;;
27269;SDS011;14769;56.934;24.176;2022-09-14T06:05:58;18.17;;;12.63;;
27269;SDS011;14769;56.934;24.176;2022-09-14T06:07:00;19.90;;;12.70;;
27269;SDS011;14769;56.934;24.176;2022-09-14T06:08:19;22.23;;;14.00;;
27269;SDS011;14769;56.934;24.176;2022-09-14T06:09:20;16.27;;;12.68;;
27269;SDS011;14769;56.934;24.176;2022-09-14T06:10:22;18.27;;;13.20;;
27269;SDS011;14769;56.934;24.176;2022-09-14T06:11:25;23.05;;;13.80;;
27269;SDS011;14769;56.934;24.176;2022-09-14T06:12:29;18.38;;;12.55;;
27269;SDS011;14769;56.934;24.176;2022-09-14T06:13:31;20.98;;;12.75;;
27269;SDS011;14769;56.934;24.176;2022-09-14T06:14:33;20.60;;;13.30;;
27269;SDS011;14769;56.934;24.176;2022-09-14T06:15:35;23.35;;;14.35;;
27269;SDS011;14769;56.934;24.176;2022-09-14T06:16:36;20.58;;;12.88;;
27269;SDS011;14769;56.934;24.176;2022-09-14T06:17:38;21.92;;;13.88;;
27269;SDS011;14769;56.934;24.176;2022-09-14T06:18:40;21.35;;;14.73;;
27269;SDS011;14769;56.934;24.176;2022-09-14T06:19:43;25.13;;;14.02;;
27269;SDS011;14769;56.934;24.176;2022-09-14T06:20:50;22.20;;;13.75;;
27269;SDS011;14769;56.934;24.176;2022-09-14T06:21:52;19.63;;;13.82;;
27269;SDS011;14769;56.934;24.176;2022-09-14T06:22:54;18.40;;;13.30;;
27269;SDS011;14769;56.934;24.176;2022-09-14T06:23:56;21.83;;;13.43;;
27269;SDS011;14769;56.934;24.176;2022-09-14T06:24:58;22.98;;;14.70;;
27269;SDS011;14769;56.934;24.176;2022-09-14T06:26:00;19.73;;;13.55;;
27269;SDS011;14769;56.934;24.176;2022-09-14T06:27:03;20.25;;;14.77;;
27269;SDS011;14769;56.934;24.176;2022-09-14T06:28:05;20.55;;;14.20;;
27269;SDS011;14769;56.934;24.176;2022-09-14T06:29:06;21.95;;;14.32;;
27269;SDS011;14769;56.934;24.176;2022-09-14T06:30:08;19.33;;;14.13;;
27269;SDS011;14769;56.934;24.176;2022-09-14T06:31:14;19.98;;;14.25;;
27269;SDS011;14769;56.934;24.176;2022-09-14T06:32:18;19.27;;;13.80;;
27269;SDS011;14769;56.934;24.176;2022-09-14T06:33:20;18.23;;;13.25;;
27269;SDS011;14769;56.934;24.176;2022-09-14T06:34:23;22.80;;;14.15;;
27269;SDS011;14769;56.934;24.176;2022-09-14T06:35:24;19.88;;;14.32;;
27269;SDS011;14769;56.934;24.176;2022-09-14T06:36:27;21.95;;;14.40;;
27269;SDS011;14769;56.934;24.176;2022-09-14T06:37:28;16.40;;;13.10;;
27269;SDS011;14769;56.934;24.176;2022-09-14T06:38:30;21.23;;;13.38;;
27269;SDS011;14769;56.934;24.176;2022-09-14T06:39:33;22.10;;;13.70;;
27269;SDS011;14769;56.934;24.176;2022-09-14T06:40:35;17.02;;;13.38;;
27269;SDS011;14769;56.934;24.176;2022-09-14T06:41:36;19.67;;;13.63;;
27269;SDS011;14769;56.934;24.176;2022-09-14T06:42:38;19.52;;;13.52;;
27269;SDS011;14769;56.934;24.176;2022-09-14T06:43:40;24.77;;;14.07;;
27269;SDS011;14769;56.934;24.176;2022-09-14T06:44:43;18.35;;;13.20;;
27269;SDS011;14769;56.934;24.176;2022-09-14T06:45:53;19.00;;;13.45;;